Terminal Aerodrome Forecast
Issued by NWS

Home | Current Version | Previous Version | Text Only | Print | Product List | Glossary On
Versions: 1 2 3 4 5 6 7 8 9 10 11 12 13 14 15 16 17 18
999
FTUS43 KSGF 281725
TAFBBG
TAF
KBBG 281725Z 2818/0118 22012G24KT P6SM BKN030
     FM282300 20014KT P6SM VCTS BKN070CB
     FM010500 21013KT P6SM SCT025 BKN150 WS020/21045KT PROB30
      0108/0111 4SM TSRA BKN020CB
     FM011100 29013KT P6SM BKN090
     FM011300 30012G20KT P6SM SCT140=

USA.gov is the U.S. government's official web portal to all federal, state and local government web resources and services.